sensor_id;sensor_type;location;lat;lon;timestamp;P1;durP1;ratioP1;P2;durP2;ratioP2
61254;SDS011;47128;47.530;8.584;2022-10-31T00:00:43;27.05;;;24.90;;
61254;SDS011;47128;47.530;8.584;2022-10-31T00:03:09;26.63;;;24.10;;
61254;SDS011;47128;47.530;8.584;2022-10-31T00:05:34;27.17;;;25.23;;
61254;SDS011;47128;47.530;8.584;2022-10-31T00:08:00;27.38;;;25.15;;
61254;SDS011;47128;47.530;8.584;2022-10-31T00:10:25;27.08;;;24.88;;
61254;SDS011;47128;47.530;8.584;2022-10-31T00:12:51;27.55;;;25.40;;
61254;SDS011;47128;47.530;8.584;2022-10-31T00:15:16;30.92;;;26.33;;
61254;SDS011;47128;47.530;8.584;2022-10-31T00:17:42;28.73;;;25.15;;
61254;SDS011;47128;47.530;8.584;2022-10-31T00:20:08;30.15;;;25.17;;
61254;SDS011;47128;47.530;8.584;2022-10-31T00:22:34;29.58;;;26.42;;
61254;SDS011;47128;47.530;8.584;2022-10-31T00:24:59;50.05;;;26.27;;
61254;SDS011;47128;47.530;8.584;2022-10-31T00:27:25;34.20;;;25.17;;
61254;SDS011;47128;47.530;8.584;2022-10-31T00:29:50;26.92;;;24.30;;
61254;SDS011;47128;47.530;8.584;2022-10-31T00:32:16;27.90;;;24.23;;
61254;SDS011;47128;47.530;8.584;2022-10-31T00:34:41;26.00;;;23.70;;
61254;SDS011;47128;47.530;8.584;2022-10-31T00:37:07;29.75;;;26.08;;
61254;SDS011;47128;47.530;8.584;2022-10-31T00:39:32;39.28;;;27.08;;
61254;SDS011;47128;47.530;8.584;2022-10-31T00:41:58;36.92;;;25.75;;
61254;SDS011;47128;47.530;8.584;2022-10-31T00:44:23;30.77;;;27.48;;
61254;SDS011;47128;47.530;8.584;2022-10-31T00:46:50;30.50;;;26.55;;
61254;SDS011;47128;47.530;8.584;2022-10-31T00:49:16;39.13;;;27.40;;
61254;SDS011;47128;47.530;8.584;2022-10-31T00:51:41;31.58;;;27.60;;
61254;SDS011;47128;47.530;8.584;2022-10-31T00:54:07;38.97;;;27.25;;
61254;SDS011;47128;47.530;8.584;2022-10-31T00:56:33;67.45;;;29.52;;
61254;SDS011;47128;47.530;8.584;2022-10-31T00:58:58;28.83;;;25.95;;
61254;SDS011;47128;47.530;8.584;2022-10-31T01:01:24;29.27;;;25.88;;
61254;SDS011;47128;47.530;8.584;2022-10-31T01:03:49;49.25;;;29.38;;
61254;SDS011;47128;47.530;8.584;2022-10-31T01:06:16;44.95;;;27.92;;
61254;SDS011;47128;47.530;8.584;2022-10-31T01:08:41;30.08;;;26.88;;
61254;SDS011;47128;47.530;8.584;2022-10-31T01:11:15;42.60;;;26.90;;
61254;SDS011;47128;47.530;8.584;2022-10-31T01:13:42;60.03;;;27.65;;
61254;SDS011;47128;47.530;8.584;2022-10-31T01:16:10;70.18;;;28.67;;
61254;SDS011;47128;47.530;8.584;2022-10-31T01:18:37;44.88;;;27.85;;
61254;SDS011;47128;47.530;8.584;2022-10-31T01:21:07;43.22;;;26.08;;
61254;SDS011;47128;47.530;8.584;2022-10-31T01:23:34;29.25;;;26.17;;
61254;SDS011;47128;47.530;8.584;2022-10-31T01:26:04;41.88;;;26.33;;
61254;SDS011;47128;47.530;8.584;2022-10-31T01:28:32;34.08;;;26.08;;
61254;SDS011;47128;47.530;8.584;2022-10-31T01:31:00;97.28;;;28.15;;
61254;SDS011;47128;47.530;8.584;2022-10-31T01:33:26;78.68;;;28.73;;
61254;SDS011;47128;47.530;8.584;2022-10-31T01:35:52;84.03;;;29.25;;
61254;SDS011;47128;47.530;8.584;2022-10-31T01:38:17;76.05;;;27.90;;
61254;SDS011;47128;47.530;8.584;2022-10-31T01:40:43;69.43;;;26.95;;
61254;SDS011;47128;47.530;8.584;2022-10-31T01:43:12;65.28;;;26.85;;
61254;SDS011;47128;47.530;8.584;2022-10-31T01:45:39;51.15;;;26.48;;
61254;SDS011;47128;47.530;8.584;2022-10-31T01:48:09;76.60;;;29.08;;
61254;SDS011;47128;47.530;8.584;2022-10-31T01:50:38;58.97;;;29.15;;
61254;SDS011;47128;47.530;8.584;2022-10-31T01:53:04;70.10;;;28.70;;
61254;SDS011;47128;47.530;8.584;2022-10-31T01:55:33;76.35;;;28.58;;
61254;SDS011;47128;47.530;8.584;2022-10-31T01:58:07;94.22;;;30.45;;
61254;SDS011;47128;47.530;8.584;2022-10-31T02:00:40;139.30;;;30.92;;
61254;SDS011;47128;47.530;8.584;2022-10-31T02:03:10;133.45;;;31.23;;
61254;SDS011;47128;47.530;8.584;2022-10-31T02:05:36;93.43;;;29.45;;
61254;SDS011;47128;47.530;8.584;2022-10-31T02:10:49;85.93;;;29.25;;
61254;SDS011;47128;47.530;8.584;2022-10-31T02:13:15;70.95;;;27.98;;
61254;SDS011;47128;47.530;8.584;2022-10-31T02:15:43;103.70;;;28.70;;
61254;SDS011;47128;47.530;8.584;2022-10-31T02:18:10;97.82;;;28.13;;
61254;SDS011;47128;47.530;8.584;2022-10-31T02:23:33;97.35;;;30.13;;
61254;SDS011;47128;47.530;8.584;2022-10-31T02:34:26;81.80;;;27.73;;
61254;SDS011;47128;47.530;8.584;2022-10-31T02:37:13;69.05;;;27.65;;
61254;SDS011;47128;47.530;8.584;2022-10-31T02:39:49;59.85;;;25.30;;
61254;SDS011;47128;47.530;8.584;2022-10-31T02:45:13;41.63;;;25.70;;
61254;SDS011;47128;47.530;8.584;2022-10-31T02:47:44;39.65;;;25.00;;
61254;SDS011;47128;47.530;8.584;2022-10-31T02:50:21;40.20;;;26.75;;
61254;SDS011;47128;47.530;8.584;2022-10-31T02:52:55;53.67;;;26.73;;
61254;SDS011;47128;47.530;8.584;2022-10-31T02:57:53;45.45;;;26.05;;
61254;SDS011;47128;47.530;8.584;2022-10-31T03:00:23;40.20;;;26.27;;
61254;SDS011;47128;47.530;8.584;2022-10-31T03:03:07;36.30;;;24.90;;
61254;SDS011;47128;47.530;8.584;2022-10-31T03:14:34;26.80;;;24.65;;
61254;SDS011;47128;47.530;8.584;2022-10-31T03:17:03;27.05;;;24.30;;
61254;SDS011;47128;47.530;8.584;2022-10-31T03:20:06;26.50;;;24.10;;
61254;SDS011;47128;47.530;8.584;2022-10-31T03:22:26;33.00;;;24.60;;
61254;SDS011;47128;47.530;8.584;2022-10-31T03:24:55;30.63;;;25.52;;
61254;SDS011;47128;47.530;8.584;2022-10-31T03:27:24;27.65;;;24.73;;
61254;SDS011;47128;47.530;8.584;2022-10-31T03:29:52;27.25;;;24.40;;
61254;SDS011;47128;47.530;8.584;2022-10-31T03:32:23;31.25;;;24.83;;
61254;SDS011;47128;47.530;8.584;2022-10-31T03:34:53;25.67;;;23.48;;
61254;SDS011;47128;47.530;8.584;2022-10-31T03:37:22;33.40;;;24.15;;
61254;SDS011;47128;47.530;8.584;2022-10-31T03:39:49;33.90;;;24.25;;
61254;SDS011;47128;47.530;8.584;2022-10-31T03:42:18;26.52;;;23.83;;
61254;SDS011;47128;47.530;8.584;2022-10-31T03:44:49;26.92;;;24.17;;
61254;SDS011;47128;47.530;8.584;2022-10-31T03:47:24;25.85;;;23.23;;
61254;SDS011;47128;47.530;8.584;2022-10-31T03:49:50;30.10;;;23.15;;
61254;SDS011;47128;47.530;8.584;2022-10-31T03:52:32;35.55;;;24.60;;
61254;SDS011;47128;47.530;8.584;2022-10-31T03:55:19;47.50;;;24.30;;
61254;SDS011;47128;47.530;8.584;2022-10-31T04:00:25;30.55;;;23.85;;
61254;SDS011;47128;47.530;8.584;2022-10-31T04:02:58;25.77;;;23.33;;
61254;SDS011;47128;47.530;8.584;2022-10-31T04:05:29;25.67;;;23.08;;
61254;SDS011;47128;47.530;8.584;2022-10-31T04:07:55;35.97;;;23.73;;
61254;SDS011;47128;47.530;8.584;2022-10-31T04:10:24;26.92;;;24.05;;
61254;SDS011;47128;47.530;8.584;2022-10-31T04:13:00;24.77;;;22.95;;
61254;SDS011;47128;47.530;8.584;2022-10-31T04:15:30;24.80;;;22.80;;
61254;SDS011;47128;47.530;8.584;2022-10-31T04:17:57;31.92;;;23.33;;
61254;SDS011;47128;47.530;8.584;2022-10-31T04:20:33;25.67;;;23.33;;
61254;SDS011;47128;47.530;8.584;2022-10-31T04:23:04;26.42;;;23.45;;
61254;SDS011;47128;47.530;8.584;2022-10-31T04:25:35;23.67;;;21.98;;
61254;SDS011;47128;47.530;8.584;2022-10-31T04:28:01;25.48;;;22.92;;
61254;SDS011;47128;47.530;8.584;2022-10-31T04:30:26;33.78;;;23.13;;
61254;SDS011;47128;47.530;8.584;2022-10-31T04:32:52;29.83;;;22.85;;
61254;SDS011;47128;47.530;8.584;2022-10-31T04:35:17;51.78;;;24.30;;
61254;SDS011;47128;47.530;8.584;2022-10-31T04:37:43;30.23;;;22.20;;
61254;SDS011;47128;47.530;8.584;2022-10-31T04:40:09;31.88;;;22.17;;
61254;SDS011;47128;47.530;8.584;2022-10-31T04:42:35;41.13;;;22.50;;
61254;SDS011;47128;47.530;8.584;2022-10-31T04:45:00;25.02;;;22.63;;
61254;SDS011;47128;47.530;8.584;2022-10-31T04:47:26;25.75;;;23.15;;
61254;SDS011;47128;47.530;8.584;2022-10-31T04:49:51;23.17;;;21.50;;
61254;SDS011;47128;47.530;8.584;2022-10-31T04:52:17;24.58;;;22.35;;
61254;SDS011;47128;47.530;8.584;2022-10-31T04:54:42;23.38;;;21.10;;
61254;SDS011;47128;47.530;8.584;2022-10-31T04:57:08;29.83;;;22.55;;
61254;SDS011;47128;47.530;8.584;2022-10-31T04:59:33;22.52;;;20.83;;
61254;SDS011;47128;47.530;8.584;2022-10-31T05:01:59;22.48;;;20.67;;
61254;SDS011;47128;47.530;8.584;2022-10-31T05:04:24;25.27;;;22.65;;
61254;SDS011;47128;47.530;8.584;2022-10-31T05:06:50;25.63;;;23.05;;
61254;SDS011;47128;47.530;8.584;2022-10-31T05:09:16;23.15;;;21.35;;
61254;SDS011;47128;47.530;8.584;2022-10-31T05:14:18;31.67;;;23.52;;
61254;SDS011;47128;47.530;8.584;2022-10-31T05:16:44;36.55;;;22.38;;
61254;SDS011;47128;47.530;8.584;2022-10-31T05:19:09;27.88;;;22.25;;
61254;SDS011;47128;47.530;8.584;2022-10-31T05:21:35;24.15;;;21.75;;
61254;SDS011;47128;47.530;8.584;2022-10-31T05:24:00;24.02;;;22.13;;
61254;SDS011;47128;47.530;8.584;2022-10-31T05:26:26;23.73;;;21.58;;
61254;SDS011;47128;47.530;8.584;2022-10-31T05:28:51;23.60;;;21.42;;
61254;SDS011;47128;47.530;8.584;2022-10-31T05:31:17;24.55;;;21.10;;
61254;SDS011;47128;47.530;8.584;2022-10-31T05:33:42;24.02;;;21.92;;
61254;SDS011;47128;47.530;8.584;2022-10-31T05:36:08;23.33;;;21.33;;
61254;SDS011;47128;47.530;8.584;2022-10-31T05:38:33;44.58;;;22.48;;
61254;SDS011;47128;47.530;8.584;2022-10-31T05:40:59;36.88;;;22.40;;
61254;SDS011;47128;47.530;8.584;2022-10-31T05:43:26;37.00;;;22.58;;
61254;SDS011;47128;47.530;8.584;2022-10-31T05:45:52;36.17;;;22.45;;
61254;SDS011;47128;47.530;8.584;2022-10-31T05:48:19;23.63;;;21.27;;
61254;SDS011;47128;47.530;8.584;2022-10-31T05:50:44;28.33;;;21.17;;
61254;SDS011;47128;47.530;8.584;2022-10-31T05:53:12;22.38;;;20.52;;
61254;SDS011;47128;47.530;8.584;2022-10-31T05:55:37;39.75;;;22.05;;
61254;SDS011;47128;47.530;8.584;2022-10-31T05:58:03;23.83;;;21.90;;
61254;SDS011;47128;47.530;8.584;2022-10-31T06:00:28;23.98;;;22.10;;
61254;SDS011;47128;47.530;8.584;2022-10-31T06:02:58;25.27;;;21.83;;
61254;SDS011;47128;47.530;8.584;2022-10-31T06:05:24;23.48;;;21.73;;
61254;SDS011;47128;47.530;8.584;2022-10-31T06:07:50;24.10;;;21.95;;
61254;SDS011;47128;47.530;8.584;2022-10-31T06:10:16;24.85;;;22.30;;
61254;SDS011;47128;47.530;8.584;2022-10-31T06:12:41;25.70;;;22.08;;
61254;SDS011;47128;47.530;8.584;2022-10-31T06:15:07;30.13;;;22.15;;
61254;SDS011;47128;47.530;8.584;2022-10-31T06:17:34;24.50;;;22.52;;
61254;SDS011;47128;47.530;8.584;2022-10-31T06:20:00;24.67;;;21.70;;
61254;SDS011;47128;47.530;8.584;2022-10-31T06:22:26;34.40;;;22.50;;
61254;SDS011;47128;47.530;8.584;2022-10-31T06:24:52;24.75;;;22.45;;
61254;SDS011;47128;47.530;8.584;2022-10-31T06:27:18;24.05;;;22.33;;
61254;SDS011;47128;47.530;8.584;2022-10-31T06:29:44;24.85;;;22.08;;
61254;SDS011;47128;47.530;8.584;2022-10-31T06:32:12;37.17;;;22.70;;
61254;SDS011;47128;47.530;8.584;2022-10-31T06:34:39;24.17;;;21.73;;
61254;SDS011;47128;47.530;8.584;2022-10-31T06:37:05;24.45;;;22.48;;
61254;SDS011;47128;47.530;8.584;2022-10-31T06:39:32;24.45;;;22.08;;
61254;SDS011;47128;47.530;8.584;2022-10-31T06:41:58;27.73;;;22.35;;
61254;SDS011;47128;47.530;8.584;2022-10-31T06:44:24;24.33;;;22.13;;
61254;SDS011;47128;47.530;8.584;2022-10-31T06:46:49;24.48;;;22.45;;
61254;SDS011;47128;47.530;8.584;2022-10-31T06:49:15;25.20;;;22.70;;
61254;SDS011;47128;47.530;8.584;2022-10-31T06:51:41;25.27;;;22.77;;
61254;SDS011;47128;47.530;8.584;2022-10-31T06:54:07;25.13;;;23.00;;
61254;SDS011;47128;47.530;8.584;2022-10-31T06:56:33;24.92;;;22.65;;
61254;SDS011;47128;47.530;8.584;2022-10-31T06:58:59;43.55;;;23.70;;
61254;SDS011;47128;47.530;8.584;2022-10-31T07:01:24;25.08;;;22.83;;
61254;SDS011;47128;47.530;8.584;2022-10-31T07:03:51;26.48;;;23.23;;
61254;SDS011;47128;47.530;8.584;2022-10-31T07:06:18;25.25;;;23.25;;
61254;SDS011;47128;47.530;8.584;2022-10-31T07:08:45;25.50;;;23.30;;
61254;SDS011;47128;47.530;8.584;2022-10-31T07:11:11;24.95;;;22.88;;
61254;SDS011;47128;47.530;8.584;2022-10-31T07:13:40;24.05;;;22.17;;
61254;SDS011;47128;47.530;8.584;2022-10-31T07:16:07;25.13;;;23.23;;
61254;SDS011;47128;47.530;8.584;2022-10-31T07:18:39;25.23;;;23.10;;
61254;SDS011;47128;47.530;8.584;2022-10-31T07:21:06;25.23;;;22.90;;
61254;SDS011;47128;47.530;8.584;2022-10-31T07:23:31;25.83;;;23.15;;
61254;SDS011;47128;47.530;8.584;2022-10-31T07:25:59;25.40;;;23.33;;
61254;SDS011;47128;47.530;8.584;2022-10-31T07:28:26;25.60;;;23.33;;
61254;SDS011;47128;47.530;8.584;2022-10-31T07:30:57;25.23;;;23.15;;
61254;SDS011;47128;47.530;8.584;2022-10-31T07:33:23;26.00;;;23.38;;
61254;SDS011;47128;47.530;8.584;2022-10-31T07:35:53;25.88;;;23.67;;
61254;SDS011;47128;47.530;8.584;2022-10-31T07:38:22;26.02;;;24.02;;
61254;SDS011;47128;47.530;8.584;2022-10-31T07:40:51;25.90;;;24.00;;
61254;SDS011;47128;47.530;8.584;2022-10-31T07:43:18;25.52;;;23.65;;
61254;SDS011;47128;47.530;8.584;2022-10-31T07:45:48;26.33;;;23.58;;
61254;SDS011;47128;47.530;8.584;2022-10-31T07:48:17;25.38;;;23.52;;
61254;SDS011;47128;47.530;8.584;2022-10-31T07:50:46;25.08;;;23.27;;
61254;SDS011;47128;47.530;8.584;2022-10-31T07:53:17;25.20;;;23.50;;
61254;SDS011;47128;47.530;8.584;2022-10-31T07:55:42;26.33;;;24.33;;
61254;SDS011;47128;47.530;8.584;2022-10-31T07:58:12;60.10;;;24.80;;
61254;SDS011;47128;47.530;8.584;2022-10-31T08:00:42;25.13;;;23.13;;
61254;SDS011;47128;47.530;8.584;2022-10-31T08:03:12;25.15;;;23.45;;
61254;SDS011;47128;47.530;8.584;2022-10-31T08:05:39;25.75;;;23.98;;
61254;SDS011;47128;47.530;8.584;2022-10-31T08:08:06;25.00;;;23.15;;
61254;SDS011;47128;47.530;8.584;2022-10-31T08:10:34;24.23;;;22.67;;
61254;SDS011;47128;47.530;8.584;2022-10-31T08:13:04;25.83;;;23.45;;
61254;SDS011;47128;47.530;8.584;2022-10-31T08:15:32;25.20;;;23.50;;
61254;SDS011;47128;47.530;8.584;2022-10-31T08:18:02;25.48;;;23.77;;
61254;SDS011;47128;47.530;8.584;2022-10-31T08:20:29;25.60;;;23.80;;
61254;SDS011;47128;47.530;8.584;2022-10-31T08:23:00;25.90;;;24.13;;
61254;SDS011;47128;47.530;8.584;2022-10-31T08:25:27;26.05;;;24.35;;
61254;SDS011;47128;47.530;8.584;2022-10-31T08:27:54;28.55;;;25.80;;
61254;SDS011;47128;47.530;8.584;2022-10-31T08:30:22;26.70;;;24.80;;
61254;SDS011;47128;47.530;8.584;2022-10-31T08:33:00;27.38;;;25.38;;
61254;SDS011;47128;47.530;8.584;2022-10-31T08:35:29;26.17;;;24.38;;
61254;SDS011;47128;47.530;8.584;2022-10-31T08:37:56;27.13;;;25.02;;
61254;SDS011;47128;47.530;8.584;2022-10-31T08:40:25;28.00;;;25.85;;
61254;SDS011;47128;47.530;8.584;2022-10-31T08:43:02;27.42;;;25.42;;
61254;SDS011;47128;47.530;8.584;2022-10-31T08:45:32;28.08;;;26.05;;
61254;SDS011;47128;47.530;8.584;2022-10-31T08:48:13;28.05;;;26.08;;
61254;SDS011;47128;47.530;8.584;2022-10-31T08:50:42;27.55;;;25.55;;
61254;SDS011;47128;47.530;8.584;2022-10-31T08:55:44;27.88;;;25.77;;
61254;SDS011;47128;47.530;8.584;2022-10-31T08:58:18;28.70;;;26.65;;
61254;SDS011;47128;47.530;8.584;2022-10-31T09:00:46;29.23;;;27.23;;
61254;SDS011;47128;47.530;8.584;2022-10-31T09:05:47;28.45;;;26.55;;
61254;SDS011;47128;47.530;8.584;2022-10-31T09:08:16;28.75;;;26.83;;
61254;SDS011;47128;47.530;8.584;2022-10-31T09:10:42;27.80;;;25.90;;
61254;SDS011;47128;47.530;8.584;2022-10-31T09:13:14;29.08;;;27.08;;
61254;SDS011;47128;47.530;8.584;2022-10-31T09:15:44;29.50;;;27.15;;
61254;SDS011;47128;47.530;8.584;2022-10-31T09:18:19;29.67;;;27.75;;
61254;SDS011;47128;47.530;8.584;2022-10-31T09:20:48;29.27;;;27.25;;
61254;SDS011;47128;47.530;8.584;2022-10-31T09:25:51;28.75;;;26.92;;
61254;SDS011;47128;47.530;8.584;2022-10-31T09:28:22;28.30;;;26.50;;
61254;SDS011;47128;47.530;8.584;2022-10-31T09:30:53;29.77;;;27.77;;
61254;SDS011;47128;47.530;8.584;2022-10-31T09:33:19;30.55;;;28.52;;
61254;SDS011;47128;47.530;8.584;2022-10-31T09:35:52;30.30;;;28.35;;
61254;SDS011;47128;47.530;8.584;2022-10-31T09:38:20;31.23;;;29.13;;
61254;SDS011;47128;47.530;8.584;2022-10-31T09:49:28;30.45;;;28.40;;
61254;SDS011;47128;47.530;8.584;2022-10-31T09:52:03;29.70;;;27.80;;
61254;SDS011;47128;47.530;8.584;2022-10-31T09:57:31;29.55;;;27.55;;
61254;SDS011;47128;47.530;8.584;2022-10-31T10:00:05;29.55;;;27.65;;
61254;SDS011;47128;47.530;8.584;2022-10-31T10:02:46;29.70;;;27.60;;
61254;SDS011;47128;47.530;8.584;2022-10-31T10:05:19;31.10;;;28.73;;
61254;SDS011;47128;47.530;8.584;2022-10-31T10:08:11;30.63;;;28.50;;
61254;SDS011;47128;47.530;8.584;2022-10-31T10:10:51;30.73;;;28.70;;
61254;SDS011;47128;47.530;8.584;2022-10-31T10:16:22;31.20;;;29.23;;
61254;SDS011;47128;47.530;8.584;2022-10-31T10:32:49;32.10;;;30.05;;
61254;SDS011;47128;47.530;8.584;2022-10-31T10:37:46;32.15;;;30.15;;
61254;SDS011;47128;47.530;8.584;2022-10-31T10:40:16;31.88;;;29.88;;
61254;SDS011;47128;47.530;8.584;2022-10-31T10:49:23;33.47;;;31.30;;
61254;SDS011;47128;47.530;8.584;2022-10-31T10:52:22;33.00;;;30.92;;
61254;SDS011;47128;47.530;8.584;2022-10-31T10:58:17;33.22;;;30.90;;
61254;SDS011;47128;47.530;8.584;2022-10-31T11:00:46;32.90;;;30.80;;
61254;SDS011;47128;47.530;8.584;2022-10-31T11:03:13;33.35;;;31.10;;
61254;SDS011;47128;47.530;8.584;2022-10-31T11:08:31;32.70;;;30.80;;
61254;SDS011;47128;47.530;8.584;2022-10-31T11:11:04;32.13;;;29.92;;
61254;SDS011;47128;47.530;8.584;2022-10-31T11:13:44;32.42;;;30.48;;
61254;SDS011;47128;47.530;8.584;2022-10-31T11:16:13;31.83;;;29.98;;
61254;SDS011;47128;47.530;8.584;2022-10-31T11:19:05;31.88;;;29.90;;
61254;SDS011;47128;47.530;8.584;2022-10-31T11:21:53;32.78;;;30.88;;
61254;SDS011;47128;47.530;8.584;2022-10-31T11:24:39;33.00;;;31.05;;
61254;SDS011;47128;47.530;8.584;2022-10-31T11:27:22;32.13;;;30.23;;
61254;SDS011;47128;47.530;8.584;2022-10-31T11:29:49;32.78;;;30.90;;
61254;SDS011;47128;47.530;8.584;2022-10-31T11:32:19;33.83;;;31.73;;
61254;SDS011;47128;47.530;8.584;2022-10-31T11:34:54;34.22;;;32.05;;
61254;SDS011;47128;47.530;8.584;2022-10-31T11:37:40;33.90;;;31.70;;
61254;SDS011;47128;47.530;8.584;2022-10-31T11:40:18;34.28;;;32.15;;
61254;SDS011;47128;47.530;8.584;2022-10-31T11:42:47;34.80;;;32.28;;
61254;SDS011;47128;47.530;8.584;2022-10-31T11:45:27;36.03;;;33.63;;
61254;SDS011;47128;47.530;8.584;2022-10-31T11:48:14;34.60;;;32.50;;
61254;SDS011;47128;47.530;8.584;2022-10-31T11:50:49;35.75;;;33.53;;
61254;SDS011;47128;47.530;8.584;2022-10-31T11:53:31;37.17;;;34.88;;
61254;SDS011;47128;47.530;8.584;2022-10-31T11:56:04;38.70;;;36.22;;
61254;SDS011;47128;47.530;8.584;2022-10-31T11:58:31;39.03;;;36.65;;
61254;SDS011;47128;47.530;8.584;2022-10-31T12:00:57;39.40;;;37.08;;
61254;SDS011;47128;47.530;8.584;2022-10-31T12:03:28;41.47;;;38.63;;
61254;SDS011;47128;47.530;8.584;2022-10-31T12:23:23;54.85;;;51.28;;
61254;SDS011;47128;47.530;8.584;2022-10-31T12:26:06;56.10;;;52.65;;
61254;SDS011;47128;47.530;8.584;2022-10-31T12:31:58;59.75;;;55.78;;
61254;SDS011;47128;47.530;8.584;2022-10-31T12:34:43;59.13;;;55.67;;
61254;SDS011;47128;47.530;8.584;2022-10-31T12:51:04;54.88;;;51.28;;
61254;SDS011;47128;47.530;8.584;2022-10-31T13:12:54;51.28;;;47.95;;
61254;SDS011;47128;47.530;8.584;2022-10-31T13:18:04;51.92;;;48.22;;
61254;SDS011;47128;47.530;8.584;2022-10-31T13:20:40;51.17;;;47.42;;
61254;SDS011;47128;47.530;8.584;2022-10-31T13:23:24;49.75;;;46.22;;
61254;SDS011;47128;47.530;8.584;2022-10-31T13:25:58;50.25;;;46.75;;
61254;SDS011;47128;47.530;8.584;2022-10-31T13:31:18;50.60;;;47.10;;
61254;SDS011;47128;47.530;8.584;2022-10-31T13:33:46;50.90;;;47.10;;
61254;SDS011;47128;47.530;8.584;2022-10-31T13:38:53;52.08;;;48.15;;
61254;SDS011;47128;47.530;8.584;2022-10-31T13:41:33;51.42;;;47.75;;
61254;SDS011;47128;47.530;8.584;2022-10-31T13:44:24;51.13;;;47.03;;
61254;SDS011;47128;47.530;8.584;2022-10-31T13:46:54;50.97;;;47.40;;
61254;SDS011;47128;47.530;8.584;2022-10-31T13:49:23;50.85;;;47.17;;
61254;SDS011;47128;47.530;8.584;2022-10-31T13:51:51;50.47;;;46.92;;
61254;SDS011;47128;47.530;8.584;2022-10-31T13:54:52;50.85;;;47.15;;
61254;SDS011;47128;47.530;8.584;2022-10-31T14:02:43;51.33;;;47.47;;
61254;SDS011;47128;47.530;8.584;2022-10-31T14:05:21;51.55;;;47.85;;
61254;SDS011;47128;47.530;8.584;2022-10-31T14:08:04;51.10;;;47.47;;
61254;SDS011;47128;47.530;8.584;2022-10-31T14:10:38;50.80;;;46.67;;
61254;SDS011;47128;47.530;8.584;2022-10-31T14:16:16;51.88;;;47.97;;
61254;SDS011;47128;47.530;8.584;2022-10-31T14:27:54;50.63;;;46.75;;
61254;SDS011;47128;47.530;8.584;2022-10-31T14:30:21;51.20;;;47.17;;
61254;SDS011;47128;47.530;8.584;2022-10-31T14:32:50;49.55;;;45.78;;
61254;SDS011;47128;47.530;8.584;2022-10-31T14:35:25;51.05;;;47.08;;
61254;SDS011;47128;47.530;8.584;2022-10-31T14:38:19;50.65;;;46.72;;
61254;SDS011;47128;47.530;8.584;2022-10-31T14:41:15;48.35;;;44.65;;
61254;SDS011;47128;47.530;8.584;2022-10-31T14:55:15;47.90;;;44.13;;
61254;SDS011;47128;47.530;8.584;2022-10-31T14:57:51;46.80;;;43.40;;
61254;SDS011;47128;47.530;8.584;2022-10-31T15:00:27;47.67;;;43.58;;
61254;SDS011;47128;47.530;8.584;2022-10-31T15:05:47;47.15;;;43.53;;
61254;SDS011;47128;47.530;8.584;2022-10-31T15:11:18;46.55;;;42.83;;
61254;SDS011;47128;47.530;8.584;2022-10-31T15:13:54;45.67;;;42.38;;
61254;SDS011;47128;47.530;8.584;2022-10-31T15:16:32;46.65;;;42.95;;
61254;SDS011;47128;47.530;8.584;2022-10-31T15:19:09;47.22;;;42.80;;
61254;SDS011;47128;47.530;8.584;2022-10-31T15:21:43;45.45;;;41.95;;
61254;SDS011;47128;47.530;8.584;2022-10-31T15:24:11;45.33;;;41.97;;
61254;SDS011;47128;47.530;8.584;2022-10-31T15:26:43;46.20;;;42.58;;
61254;SDS011;47128;47.530;8.584;2022-10-31T15:29:14;45.72;;;42.13;;
61254;SDS011;47128;47.530;8.584;2022-10-31T15:34:41;44.85;;;41.45;;
61254;SDS011;47128;47.530;8.584;2022-10-31T15:37:13;45.08;;;41.63;;
61254;SDS011;47128;47.530;8.584;2022-10-31T15:39:43;46.28;;;42.58;;
61254;SDS011;47128;47.530;8.584;2022-10-31T15:42:22;48.28;;;44.42;;
61254;SDS011;47128;47.530;8.584;2022-10-31T15:45:01;46.75;;;43.05;;
61254;SDS011;47128;47.530;8.584;2022-10-31T15:47:30;47.40;;;43.45;;
61254;SDS011;47128;47.530;8.584;2022-10-31T15:50:00;49.22;;;44.95;;
61254;SDS011;47128;47.530;8.584;2022-10-31T15:52:34;46.47;;;42.88;;
61254;SDS011;47128;47.530;8.584;2022-10-31T15:55:25;47.45;;;43.30;;
61254;SDS011;47128;47.530;8.584;2022-10-31T15:58:00;45.93;;;42.23;;
61254;SDS011;47128;47.530;8.584;2022-10-31T16:00:36;45.38;;;41.40;;
61254;SDS011;47128;47.530;8.584;2022-10-31T16:13:59;45.55;;;41.75;;
61254;SDS011;47128;47.530;8.584;2022-10-31T16:16:48;45.22;;;41.40;;
61254;SDS011;47128;47.530;8.584;2022-10-31T16:24:29;44.78;;;40.85;;
61254;SDS011;47128;47.530;8.584;2022-10-31T16:27:07;44.65;;;40.80;;
61254;SDS011;47128;47.530;8.584;2022-10-31T16:29:45;45.40;;;41.42;;
61254;SDS011;47128;47.530;8.584;2022-10-31T16:37:36;47.33;;;42.97;;
61254;SDS011;47128;47.530;8.584;2022-10-31T16:40:03;47.50;;;42.78;;
61254;SDS011;47128;47.530;8.584;2022-10-31T16:42:28;45.72;;;41.72;;
61254;SDS011;47128;47.530;8.584;2022-10-31T16:44:55;46.42;;;41.80;;
61254;SDS011;47128;47.530;8.584;2022-10-31T16:47:21;44.10;;;40.33;;
61254;SDS011;47128;47.530;8.584;2022-10-31T16:49:47;45.05;;;41.30;;
61254;SDS011;47128;47.530;8.584;2022-10-31T16:52:14;44.58;;;40.72;;
61254;SDS011;47128;47.530;8.584;2022-10-31T16:54:40;46.28;;;41.90;;
61254;SDS011;47128;47.530;8.584;2022-10-31T16:57:06;44.17;;;40.25;;
61254;SDS011;47128;47.530;8.584;2022-10-31T16:59:36;45.78;;;41.78;;
61254;SDS011;47128;47.530;8.584;2022-10-31T17:02:02;44.85;;;40.92;;
61254;SDS011;47128;47.530;8.584;2022-10-31T17:04:29;42.92;;;39.15;;
61254;SDS011;47128;47.530;8.584;2022-10-31T17:06:54;44.30;;;40.47;;
61254;SDS011;47128;47.530;8.584;2022-10-31T17:09:20;43.30;;;39.53;;
61254;SDS011;47128;47.530;8.584;2022-10-31T17:11:46;44.83;;;40.92;;
61254;SDS011;47128;47.530;8.584;2022-10-31T17:14:15;45.42;;;41.53;;
61254;SDS011;47128;47.530;8.584;2022-10-31T17:16:42;46.67;;;41.92;;
61254;SDS011;47128;47.530;8.584;2022-10-31T17:19:11;45.42;;;41.22;;
61254;SDS011;47128;47.530;8.584;2022-10-31T17:21:37;44.15;;;40.50;;
61254;SDS011;47128;47.530;8.584;2022-10-31T17:24:03;44.90;;;40.72;;
61254;SDS011;47128;47.530;8.584;2022-10-31T17:26:29;45.58;;;41.28;;
61254;SDS011;47128;47.530;8.584;2022-10-31T17:28:55;44.80;;;40.60;;
61254;SDS011;47128;47.530;8.584;2022-10-31T17:31:27;44.95;;;40.58;;
61254;SDS011;47128;47.530;8.584;2022-10-31T17:33:55;45.30;;;41.15;;
61254;SDS011;47128;47.530;8.584;2022-10-31T17:36:22;44.60;;;40.83;;
61254;SDS011;47128;47.530;8.584;2022-10-31T17:38:48;43.63;;;39.83;;
61254;SDS011;47128;47.530;8.584;2022-10-31T17:41:13;44.28;;;40.05;;
61254;SDS011;47128;47.530;8.584;2022-10-31T17:43:39;44.75;;;40.55;;
61254;SDS011;47128;47.530;8.584;2022-10-31T17:46:05;47.67;;;43.42;;
61254;SDS011;47128;47.530;8.584;2022-10-31T17:48:32;51.80;;;46.88;;
61254;SDS011;47128;47.530;8.584;2022-10-31T17:51:03;58.47;;;52.58;;
61254;SDS011;47128;47.530;8.584;2022-10-31T17:53:30;47.47;;;43.00;;
61254;SDS011;47128;47.530;8.584;2022-10-31T17:55:59;45.13;;;41.13;;
61254;SDS011;47128;47.530;8.584;2022-10-31T17:58:33;44.85;;;41.13;;
61254;SDS011;47128;47.530;8.584;2022-10-31T18:00:59;45.42;;;41.20;;
61254;SDS011;47128;47.530;8.584;2022-10-31T18:03:25;50.20;;;45.45;;